sensor_id;sensor_type;location;lat;lon;timestamp;P1;durP1;ratioP1;P2;durP2;ratioP2
7823;SDS011;3957;48.61947800;9.05303100;2023-04-03T00:00:07;3.77;;;2.90;;
7823;SDS011;3957;48.61947800;9.05303100;2023-04-03T00:01:09;4.25;;;3.50;;
7823;SDS011;3957;48.61947800;9.05303100;2023-04-03T00:02:10;4.30;;;3.50;;
7823;SDS011;3957;48.61947800;9.05303100;2023-04-03T00:03:10;4.67;;;3.43;;
7823;SDS011;3957;48.61947800;9.05303100;2023-04-03T00:04:11;4.80;;;3.22;;
7823;SDS011;3957;48.61947800;9.05303100;2023-04-03T00:05:11;4.83;;;3.43;;
7823;SDS011;3957;48.61947800;9.05303100;2023-04-03T00:06:12;5.03;;;3.45;;
7823;SDS011;3957;48.61947800;9.05303100;2023-04-03T00:07:13;4.93;;;3.42;;
7823;SDS011;3957;48.61947800;9.05303100;2023-04-03T00:08:14;3.97;;;3.10;;
7823;SDS011;3957;48.61947800;9.05303100;2023-04-03T00:09:15;4.30;;;3.37;;
7823;SDS011;3957;48.61947800;9.05303100;2023-04-03T00:10:15;3.72;;;3.08;;
7823;SDS011;3957;48.61947800;9.05303100;2023-04-03T00:11:16;5.13;;;3.27;;
7823;SDS011;3957;48.61947800;9.05303100;2023-04-03T00:12:17;4.00;;;3.17;;
7823;SDS011;3957;48.61947800;9.05303100;2023-04-03T00:13:17;3.70;;;3.30;;
7823;SDS011;3957;48.61947800;9.05303100;2023-04-03T00:14:18;4.38;;;3.15;;
7823;SDS011;3957;48.61947800;9.05303100;2023-04-03T00:15:18;5.30;;;3.50;;
7823;SDS011;3957;48.61947800;9.05303100;2023-04-03T00:16:19;4.63;;;3.00;;
7823;SDS011;3957;48.61947800;9.05303100;2023-04-03T00:17:19;4.60;;;3.42;;
7823;SDS011;3957;48.61947800;9.05303100;2023-04-03T00:18:20;5.22;;;3.17;;
7823;SDS011;3957;48.61947800;9.05303100;2023-04-03T00:19:21;5.53;;;3.50;;
7823;SDS011;3957;48.61947800;9.05303100;2023-04-03T00:20:21;4.13;;;3.47;;
7823;SDS011;3957;48.61947800;9.05303100;2023-04-03T00:21:21;3.67;;;3.03;;
7823;SDS011;3957;48.61947800;9.05303100;2023-04-03T00:22:22;3.30;;;3.00;;
7823;SDS011;3957;48.61947800;9.05303100;2023-04-03T00:23:22;5.27;;;3.30;;
7823;SDS011;3957;48.61947800;9.05303100;2023-04-03T00:24:23;3.78;;;3.10;;
7823;SDS011;3957;48.61947800;9.05303100;2023-04-03T00:25:24;5.63;;;3.07;;
7823;SDS011;3957;48.61947800;9.05303100;2023-04-03T00:26:24;3.58;;;3.10;;
7823;SDS011;3957;48.61947800;9.05303100;2023-04-03T00:27:25;4.13;;;3.00;;
7823;SDS011;3957;48.61947800;9.05303100;2023-04-03T00:28:25;3.47;;;2.83;;
7823;SDS011;3957;48.61947800;9.05303100;2023-04-03T00:29:26;5.50;;;3.38;;
7823;SDS011;3957;48.61947800;9.05303100;2023-04-03T00:30:27;3.90;;;3.40;;
7823;SDS011;3957;48.61947800;9.05303100;2023-04-03T00:31:27;3.43;;;3.00;;
7823;SDS011;3957;48.61947800;9.05303100;2023-04-03T00:32:28;5.70;;;3.77;;
7823;SDS011;3957;48.61947800;9.05303100;2023-04-03T00:33:28;3.75;;;3.25;;
7823;SDS011;3957;48.61947800;9.05303100;2023-04-03T00:34:29;5.27;;;3.50;;
7823;SDS011;3957;48.61947800;9.05303100;2023-04-03T00:35:29;3.90;;;3.40;;
7823;SDS011;3957;48.61947800;9.05303100;2023-04-03T00:36:30;4.50;;;3.38;;
7823;SDS011;3957;48.61947800;9.05303100;2023-04-03T00:37:30;4.53;;;3.22;;
7823;SDS011;3957;48.61947800;9.05303100;2023-04-03T00:38:31;4.17;;;3.03;;
7823;SDS011;3957;48.61947800;9.05303100;2023-04-03T00:39:31;5.38;;;3.38;;
7823;SDS011;3957;48.61947800;9.05303100;2023-04-03T00:40:35;4.30;;;3.33;;
7823;SDS011;3957;48.61947800;9.05303100;2023-04-03T00:41:39;3.80;;;3.00;;
7823;SDS011;3957;48.61947800;9.05303100;2023-04-03T00:42:40;4.10;;;3.10;;
7823;SDS011;3957;48.61947800;9.05303100;2023-04-03T00:43:42;4.10;;;3.40;;
7823;SDS011;3957;48.61947800;9.05303100;2023-04-03T00:45:47;4.57;;;3.22;;
7823;SDS011;3957;48.61947800;9.05303100;2023-04-03T00:46:49;3.53;;;3.20;;
7823;SDS011;3957;48.61947800;9.05303100;2023-04-03T00:47:50;4.90;;;3.20;;
7823;SDS011;3957;48.61947800;9.05303100;2023-04-03T00:48:51;4.28;;;3.30;;
7823;SDS011;3957;48.61947800;9.05303100;2023-04-03T00:49:51;4.20;;;3.20;;
7823;SDS011;3957;48.61947800;9.05303100;2023-04-03T00:50:53;5.90;;;3.50;;
7823;SDS011;3957;48.61947800;9.05303100;2023-04-03T00:51:54;3.83;;;3.10;;
7823;SDS011;3957;48.61947800;9.05303100;2023-04-03T00:52:56;5.25;;;3.40;;
7823;SDS011;3957;48.61947800;9.05303100;2023-04-03T00:54:01;3.60;;;3.20;;
7823;SDS011;3957;48.61947800;9.05303100;2023-04-03T00:55:05;4.43;;;3.13;;
7823;SDS011;3957;48.61947800;9.05303100;2023-04-03T00:56:09;3.50;;;3.20;;
7823;SDS011;3957;48.61947800;9.05303100;2023-04-03T00:57:12;4.35;;;2.72;;
7823;SDS011;3957;48.61947800;9.05303100;2023-04-03T00:58:16;4.22;;;3.03;;
7823;SDS011;3957;48.61947800;9.05303100;2023-04-03T00:59:26;4.30;;;3.25;;
7823;SDS011;3957;48.61947800;9.05303100;2023-04-03T01:00:30;6.28;;;3.55;;
7823;SDS011;3957;48.61947800;9.05303100;2023-04-03T01:01:30;3.70;;;3.30;;
7823;SDS011;3957;48.61947800;9.05303100;2023-04-03T01:02:31;4.05;;;3.10;;
7823;SDS011;3957;48.61947800;9.05303100;2023-04-03T01:03:32;4.10;;;3.50;;
7823;SDS011;3957;48.61947800;9.05303100;2023-04-03T01:04:35;4.00;;;3.10;;
7823;SDS011;3957;48.61947800;9.05303100;2023-04-03T01:05:39;3.97;;;3.42;;
7823;SDS011;3957;48.61947800;9.05303100;2023-04-03T01:06:40;5.10;;;3.40;;
7823;SDS011;3957;48.61947800;9.05303100;2023-04-03T01:07:42;4.47;;;3.10;;
7823;SDS011;3957;48.61947800;9.05303100;2023-04-03T01:08:43;3.60;;;3.20;;
7823;SDS011;3957;48.61947800;9.05303100;2023-04-03T01:09:45;3.72;;;3.28;;
7823;SDS011;3957;48.61947800;9.05303100;2023-04-03T01:10:47;4.90;;;3.20;;
7823;SDS011;3957;48.61947800;9.05303100;2023-04-03T01:11:48;6.35;;;3.03;;
7823;SDS011;3957;48.61947800;9.05303100;2023-04-03T01:12:49;4.53;;;3.10;;
7823;SDS011;3957;48.61947800;9.05303100;2023-04-03T01:13:50;4.03;;;3.05;;
7823;SDS011;3957;48.61947800;9.05303100;2023-04-03T01:14:52;3.38;;;3.08;;
7823;SDS011;3957;48.61947800;9.05303100;2023-04-03T01:16:00;3.95;;;3.50;;
7823;SDS011;3957;48.61947800;9.05303100;2023-04-03T01:17:02;3.80;;;3.05;;
7823;SDS011;3957;48.61947800;9.05303100;2023-04-03T01:18:02;3.87;;;3.27;;
7823;SDS011;3957;48.61947800;9.05303100;2023-04-03T01:19:05;5.43;;;3.30;;
7823;SDS011;3957;48.61947800;9.05303100;2023-04-03T01:21:17;3.43;;;2.93;;
7823;SDS011;3957;48.61947800;9.05303100;2023-04-03T01:22:29;4.30;;;3.40;;
7823;SDS011;3957;48.61947800;9.05303100;2023-04-03T01:25:06;4.70;;;3.30;;
7823;SDS011;3957;48.61947800;9.05303100;2023-04-03T01:26:07;3.63;;;3.23;;
7823;SDS011;3957;48.61947800;9.05303100;2023-04-03T01:27:09;4.25;;;2.85;;
7823;SDS011;3957;48.61947800;9.05303100;2023-04-03T01:28:21;3.58;;;3.00;;
7823;SDS011;3957;48.61947800;9.05303100;2023-04-03T01:29:23;4.85;;;3.40;;
7823;SDS011;3957;48.61947800;9.05303100;2023-04-03T01:30:26;4.07;;;3.08;;
7823;SDS011;3957;48.61947800;9.05303100;2023-04-03T01:32:35;3.45;;;3.10;;
7823;SDS011;3957;48.61947800;9.05303100;2023-04-03T01:33:37;4.83;;;3.50;;
7823;SDS011;3957;48.61947800;9.05303100;2023-04-03T01:34:37;4.03;;;3.28;;
7823;SDS011;3957;48.61947800;9.05303100;2023-04-03T01:35:38;4.95;;;3.33;;
7823;SDS011;3957;48.61947800;9.05303100;2023-04-03T01:36:39;4.40;;;3.00;;
7823;SDS011;3957;48.61947800;9.05303100;2023-04-03T01:37:40;3.38;;;3.08;;
7823;SDS011;3957;48.61947800;9.05303100;2023-04-03T01:38:40;4.10;;;3.13;;
7823;SDS011;3957;48.61947800;9.05303100;2023-04-03T01:39:41;3.70;;;3.05;;
7823;SDS011;3957;48.61947800;9.05303100;2023-04-03T01:40:41;3.30;;;2.85;;
7823;SDS011;3957;48.61947800;9.05303100;2023-04-03T01:41:42;3.92;;;3.03;;
7823;SDS011;3957;48.61947800;9.05303100;2023-04-03T01:42:48;4.85;;;3.10;;
7823;SDS011;3957;48.61947800;9.05303100;2023-04-03T01:43:48;4.03;;;3.00;;
7823;SDS011;3957;48.61947800;9.05303100;2023-04-03T01:44:49;3.80;;;3.22;;
7823;SDS011;3957;48.61947800;9.05303100;2023-04-03T01:45:50;4.47;;;3.13;;
7823;SDS011;3957;48.61947800;9.05303100;2023-04-03T01:46:52;4.47;;;2.97;;
7823;SDS011;3957;48.61947800;9.05303100;2023-04-03T01:47:54;3.45;;;3.15;;
7823;SDS011;3957;48.61947800;9.05303100;2023-04-03T01:48:57;3.13;;;2.77;;
7823;SDS011;3957;48.61947800;9.05303100;2023-04-03T01:49:58;3.40;;;3.10;;
7823;SDS011;3957;48.61947800;9.05303100;2023-04-03T01:50:58;4.70;;;3.10;;
7823;SDS011;3957;48.61947800;9.05303100;2023-04-03T01:51:59;3.47;;;3.17;;
7823;SDS011;3957;48.61947800;9.05303100;2023-04-03T01:52:59;3.97;;;3.20;;
7823;SDS011;3957;48.61947800;9.05303100;2023-04-03T01:54:00;3.17;;;2.80;;
7823;SDS011;3957;48.61947800;9.05303100;2023-04-03T01:55:01;4.40;;;3.00;;
7823;SDS011;3957;48.61947800;9.05303100;2023-04-03T01:56:02;3.75;;;3.03;;
7823;SDS011;3957;48.61947800;9.05303100;2023-04-03T01:57:05;3.50;;;2.88;;
7823;SDS011;3957;48.61947800;9.05303100;2023-04-03T01:58:06;4.53;;;3.30;;
7823;SDS011;3957;48.61947800;9.05303100;2023-04-03T01:59:06;4.30;;;3.23;;
7823;SDS011;3957;48.61947800;9.05303100;2023-04-03T02:00:07;3.80;;;3.08;;
7823;SDS011;3957;48.61947800;9.05303100;2023-04-03T02:01:13;3.40;;;3.10;;
7823;SDS011;3957;48.61947800;9.05303100;2023-04-03T02:02:13;6.00;;;3.60;;
7823;SDS011;3957;48.61947800;9.05303100;2023-04-03T02:03:14;4.43;;;3.27;;
7823;SDS011;3957;48.61947800;9.05303100;2023-04-03T02:04:15;4.13;;;3.30;;
7823;SDS011;3957;48.61947800;9.05303100;2023-04-03T02:05:15;4.63;;;3.07;;
7823;SDS011;3957;48.61947800;9.05303100;2023-04-03T02:06:16;3.97;;;3.23;;
7823;SDS011;3957;48.61947800;9.05303100;2023-04-03T02:07:16;3.53;;;3.20;;
7823;SDS011;3957;48.61947800;9.05303100;2023-04-03T02:08:17;5.10;;;3.25;;
7823;SDS011;3957;48.61947800;9.05303100;2023-04-03T02:09:18;4.80;;;2.88;;
7823;SDS011;3957;48.61947800;9.05303100;2023-04-03T02:10:18;3.70;;;3.13;;
7823;SDS011;3957;48.61947800;9.05303100;2023-04-03T02:11:18;4.63;;;3.13;;
7823;SDS011;3957;48.61947800;9.05303100;2023-04-03T02:12:20;3.42;;;3.13;;
7823;SDS011;3957;48.61947800;9.05303100;2023-04-03T02:13:20;5.07;;;3.33;;
7823;SDS011;3957;48.61947800;9.05303100;2023-04-03T02:14:21;4.33;;;3.60;;
7823;SDS011;3957;48.61947800;9.05303100;2023-04-03T02:15:23;4.30;;;3.15;;
7823;SDS011;3957;48.61947800;9.05303100;2023-04-03T02:16:23;5.03;;;3.30;;
7823;SDS011;3957;48.61947800;9.05303100;2023-04-03T02:17:24;3.60;;;3.20;;
7823;SDS011;3957;48.61947800;9.05303100;2023-04-03T02:18:25;3.72;;;2.97;;
7823;SDS011;3957;48.61947800;9.05303100;2023-04-03T02:19:25;4.10;;;2.87;;
7823;SDS011;3957;48.61947800;9.05303100;2023-04-03T02:20:25;3.17;;;2.60;;
7823;SDS011;3957;48.61947800;9.05303100;2023-04-03T02:21:26;3.28;;;2.97;;
7823;SDS011;3957;48.61947800;9.05303100;2023-04-03T02:22:27;4.20;;;2.90;;
7823;SDS011;3957;48.61947800;9.05303100;2023-04-03T02:23:27;3.43;;;3.13;;
7823;SDS011;3957;48.61947800;9.05303100;2023-04-03T02:24:28;5.13;;;3.40;;
7823;SDS011;3957;48.61947800;9.05303100;2023-04-03T02:25:30;4.65;;;3.42;;
7823;SDS011;3957;48.61947800;9.05303100;2023-04-03T02:26:30;3.72;;;2.88;;
7823;SDS011;3957;48.61947800;9.05303100;2023-04-03T02:27:31;3.57;;;3.20;;
7823;SDS011;3957;48.61947800;9.05303100;2023-04-03T02:28:32;7.13;;;3.30;;
7823;SDS011;3957;48.61947800;9.05303100;2023-04-03T02:29:32;5.38;;;3.15;;
7823;SDS011;3957;48.61947800;9.05303100;2023-04-03T02:30:32;3.87;;;3.00;;
7823;SDS011;3957;48.61947800;9.05303100;2023-04-03T02:31:33;4.67;;;2.83;;
7823;SDS011;3957;48.61947800;9.05303100;2023-04-03T02:32:35;3.85;;;2.85;;
7823;SDS011;3957;48.61947800;9.05303100;2023-04-03T02:33:36;4.40;;;3.30;;
7823;SDS011;3957;48.61947800;9.05303100;2023-04-03T02:34:38;3.65;;;3.10;;
7823;SDS011;3957;48.61947800;9.05303100;2023-04-03T02:35:39;3.80;;;3.00;;
7823;SDS011;3957;48.61947800;9.05303100;2023-04-03T02:36:40;3.90;;;2.83;;
7823;SDS011;3957;48.61947800;9.05303100;2023-04-03T02:37:43;3.33;;;3.03;;
7823;SDS011;3957;48.61947800;9.05303100;2023-04-03T02:38:43;4.10;;;3.00;;
7823;SDS011;3957;48.61947800;9.05303100;2023-04-03T02:39:44;4.72;;;3.15;;
7823;SDS011;3957;48.61947800;9.05303100;2023-04-03T02:40:45;4.68;;;3.13;;
7823;SDS011;3957;48.61947800;9.05303100;2023-04-03T02:41:45;6.60;;;3.20;;
7823;SDS011;3957;48.61947800;9.05303100;2023-04-03T02:42:52;2.97;;;2.60;;
7823;SDS011;3957;48.61947800;9.05303100;2023-04-03T02:43:53;4.30;;;3.10;;
7823;SDS011;3957;48.61947800;9.05303100;2023-04-03T02:44:53;3.83;;;3.00;;
7823;SDS011;3957;48.61947800;9.05303100;2023-04-03T02:45:54;3.38;;;2.63;;
7823;SDS011;3957;48.61947800;9.05303100;2023-04-03T02:46:54;5.63;;;3.17;;
7823;SDS011;3957;48.61947800;9.05303100;2023-04-03T02:47:55;3.60;;;2.83;;
7823;SDS011;3957;48.61947800;9.05303100;2023-04-03T02:48:55;3.55;;;3.03;;
7823;SDS011;3957;48.61947800;9.05303100;2023-04-03T02:49:56;3.90;;;3.00;;
7823;SDS011;3957;48.61947800;9.05303100;2023-04-03T02:50:56;4.10;;;3.20;;
7823;SDS011;3957;48.61947800;9.05303100;2023-04-03T02:51:57;3.63;;;3.10;;
7823;SDS011;3957;48.61947800;9.05303100;2023-04-03T02:52:57;3.70;;;2.83;;
7823;SDS011;3957;48.61947800;9.05303100;2023-04-03T02:53:58;3.25;;;2.90;;
7823;SDS011;3957;48.61947800;9.05303100;2023-04-03T02:55:02;3.40;;;2.85;;
7823;SDS011;3957;48.61947800;9.05303100;2023-04-03T02:56:03;3.50;;;2.85;;
7823;SDS011;3957;48.61947800;9.05303100;2023-04-03T02:57:04;3.30;;;2.90;;
7823;SDS011;3957;48.61947800;9.05303100;2023-04-03T02:58:04;3.60;;;3.00;;
7823;SDS011;3957;48.61947800;9.05303100;2023-04-03T02:59:05;4.75;;;3.10;;
7823;SDS011;3957;48.61947800;9.05303100;2023-04-03T03:00:07;3.95;;;3.00;;
7823;SDS011;3957;48.61947800;9.05303100;2023-04-03T03:01:08;4.78;;;2.95;;
7823;SDS011;3957;48.61947800;9.05303100;2023-04-03T03:02:09;3.90;;;3.03;;
7823;SDS011;3957;48.61947800;9.05303100;2023-04-03T03:03:10;4.40;;;3.00;;
7823;SDS011;3957;48.61947800;9.05303100;2023-04-03T03:04:10;3.30;;;2.70;;
7823;SDS011;3957;48.61947800;9.05303100;2023-04-03T03:05:11;4.27;;;2.80;;
7823;SDS011;3957;48.61947800;9.05303100;2023-04-03T03:06:13;4.07;;;2.92;;
7823;SDS011;3957;48.61947800;9.05303100;2023-04-03T03:07:16;3.20;;;2.90;;
7823;SDS011;3957;48.61947800;9.05303100;2023-04-03T03:08:16;3.63;;;2.80;;
7823;SDS011;3957;48.61947800;9.05303100;2023-04-03T03:09:20;3.00;;;2.70;;
7823;SDS011;3957;48.61947800;9.05303100;2023-04-03T03:10:20;4.60;;;3.40;;
7823;SDS011;3957;48.61947800;9.05303100;2023-04-03T03:11:20;4.07;;;3.23;;
7823;SDS011;3957;48.61947800;9.05303100;2023-04-03T03:12:21;4.53;;;3.13;;
7823;SDS011;3957;48.61947800;9.05303100;2023-04-03T03:13:21;3.72;;;3.22;;
7823;SDS011;3957;48.61947800;9.05303100;2023-04-03T03:14:22;4.97;;;3.08;;
7823;SDS011;3957;48.61947800;9.05303100;2023-04-03T03:15:23;3.85;;;2.85;;
7823;SDS011;3957;48.61947800;9.05303100;2023-04-03T03:16:23;3.17;;;2.77;;
7823;SDS011;3957;48.61947800;9.05303100;2023-04-03T03:17:24;4.35;;;3.10;;
7823;SDS011;3957;48.61947800;9.05303100;2023-04-03T03:18:24;3.80;;;2.80;;
7823;SDS011;3957;48.61947800;9.05303100;2023-04-03T03:19:25;3.40;;;3.00;;
7823;SDS011;3957;48.61947800;9.05303100;2023-04-03T03:20:26;3.92;;;3.40;;
7823;SDS011;3957;48.61947800;9.05303100;2023-04-03T03:21:26;3.50;;;2.90;;
7823;SDS011;3957;48.61947800;9.05303100;2023-04-03T03:22:27;7.38;;;3.05;;
7823;SDS011;3957;48.61947800;9.05303100;2023-04-03T03:23:29;4.00;;;3.05;;
7823;SDS011;3957;48.61947800;9.05303100;2023-04-03T03:24:32;4.75;;;2.97;;
7823;SDS011;3957;48.61947800;9.05303100;2023-04-03T03:25:32;4.07;;;3.40;;
7823;SDS011;3957;48.61947800;9.05303100;2023-04-03T03:26:32;4.07;;;3.05;;
7823;SDS011;3957;48.61947800;9.05303100;2023-04-03T03:27:33;4.00;;;3.00;;
7823;SDS011;3957;48.61947800;9.05303100;2023-04-03T03:28:34;4.03;;;3.20;;
7823;SDS011;3957;48.61947800;9.05303100;2023-04-03T03:29:36;4.70;;;3.40;;
7823;SDS011;3957;48.61947800;9.05303100;2023-04-03T03:30:38;4.82;;;3.58;;
7823;SDS011;3957;48.61947800;9.05303100;2023-04-03T03:31:38;3.97;;;3.30;;
7823;SDS011;3957;48.61947800;9.05303100;2023-04-03T03:32:38;4.05;;;3.13;;
7823;SDS011;3957;48.61947800;9.05303100;2023-04-03T03:33:39;4.23;;;3.57;;
7823;SDS011;3957;48.61947800;9.05303100;2023-04-03T03:34:40;8.43;;;4.70;;
7823;SDS011;3957;48.61947800;9.05303100;2023-04-03T03:35:40;11.98;;;6.40;;
7823;SDS011;3957;48.61947800;9.05303100;2023-04-03T03:36:42;17.00;;;8.50;;
7823;SDS011;3957;48.61947800;9.05303100;2023-04-03T03:37:42;21.23;;;9.67;;
7823;SDS011;3957;48.61947800;9.05303100;2023-04-03T03:38:42;19.53;;;9.10;;
7823;SDS011;3957;48.61947800;9.05303100;2023-04-03T03:39:43;20.13;;;10.25;;
7823;SDS011;3957;48.61947800;9.05303100;2023-04-03T03:40:44;18.10;;;9.07;;
7823;SDS011;3957;48.61947800;9.05303100;2023-04-03T03:41:45;13.75;;;7.40;;
7823;SDS011;3957;48.61947800;9.05303100;2023-04-03T03:42:45;10.88;;;6.85;;
7823;SDS011;3957;48.61947800;9.05303100;2023-04-03T03:43:46;13.25;;;7.70;;
7823;SDS011;3957;48.61947800;9.05303100;2023-04-03T03:44:48;9.68;;;6.18;;
7823;SDS011;3957;48.61947800;9.05303100;2023-04-03T03:45:51;10.27;;;5.97;;
7823;SDS011;3957;48.61947800;9.05303100;2023-04-03T03:46:52;12.77;;;7.35;;
7823;SDS011;3957;48.61947800;9.05303100;2023-04-03T03:47:53;13.80;;;8.40;;
7823;SDS011;3957;48.61947800;9.05303100;2023-04-03T03:48:54;12.63;;;7.35;;
7823;SDS011;3957;48.61947800;9.05303100;2023-04-03T03:49:54;11.10;;;7.10;;
7823;SDS011;3957;48.61947800;9.05303100;2023-04-03T03:50:54;11.33;;;7.00;;
7823;SDS011;3957;48.61947800;9.05303100;2023-04-03T03:51:58;11.65;;;7.57;;
7823;SDS011;3957;48.61947800;9.05303100;2023-04-03T03:52:59;10.65;;;6.85;;
7823;SDS011;3957;48.61947800;9.05303100;2023-04-03T03:54:00;11.82;;;7.60;;
7823;SDS011;3957;48.61947800;9.05303100;2023-04-03T03:55:00;13.27;;;7.70;;
7823;SDS011;3957;48.61947800;9.05303100;2023-04-03T03:56:01;10.03;;;6.63;;
7823;SDS011;3957;48.61947800;9.05303100;2023-04-03T03:57:03;8.02;;;5.85;;
7823;SDS011;3957;48.61947800;9.05303100;2023-04-03T03:58:05;6.85;;;4.90;;
7823;SDS011;3957;48.61947800;9.05303100;2023-04-03T03:59:07;5.85;;;4.28;;
7823;SDS011;3957;48.61947800;9.05303100;2023-04-03T04:00:08;5.28;;;4.30;;
7823;SDS011;3957;48.61947800;9.05303100;2023-04-03T04:01:15;4.82;;;4.10;;
7823;SDS011;3957;48.61947800;9.05303100;2023-04-03T04:02:21;5.75;;;3.80;;
7823;SDS011;3957;48.61947800;9.05303100;2023-04-03T04:03:21;5.43;;;4.90;;
7823;SDS011;3957;48.61947800;9.05303100;2023-04-03T04:04:23;4.85;;;4.28;;
7823;SDS011;3957;48.61947800;9.05303100;2023-04-03T04:05:24;4.80;;;3.90;;
7823;SDS011;3957;48.61947800;9.05303100;2023-04-03T04:06:26;5.63;;;4.32;;
7823;SDS011;3957;48.61947800;9.05303100;2023-04-03T04:07:30;5.03;;;4.15;;
7823;SDS011;3957;48.61947800;9.05303100;2023-04-03T04:08:31;7.18;;;5.10;;
7823;SDS011;3957;48.61947800;9.05303100;2023-04-03T04:09:32;6.68;;;4.40;;
7823;SDS011;3957;48.61947800;9.05303100;2023-04-03T04:10:33;6.25;;;4.05;;
7823;SDS011;3957;48.61947800;9.05303100;2023-04-03T04:11:34;5.63;;;4.20;;
7823;SDS011;3957;48.61947800;9.05303100;2023-04-03T04:12:35;4.45;;;3.88;;
7823;SDS011;3957;48.61947800;9.05303100;2023-04-03T04:13:36;4.32;;;3.72;;
7823;SDS011;3957;48.61947800;9.05303100;2023-04-03T04:14:37;4.72;;;3.78;;
7823;SDS011;3957;48.61947800;9.05303100;2023-04-03T04:15:38;3.83;;;3.28;;
7823;SDS011;3957;48.61947800;9.05303100;2023-04-03T04:16:38;3.97;;;3.53;;
7823;SDS011;3957;48.61947800;9.05303100;2023-04-03T04:17:44;4.55;;;3.40;;
7823;SDS011;3957;48.61947800;9.05303100;2023-04-03T04:18:45;4.22;;;3.60;;
7823;SDS011;3957;48.61947800;9.05303100;2023-04-03T04:19:46;4.90;;;3.55;;
7823;SDS011;3957;48.61947800;9.05303100;2023-04-03T04:20:47;3.65;;;3.33;;
7823;SDS011;3957;48.61947800;9.05303100;2023-04-03T04:21:48;3.65;;;3.25;;
7823;SDS011;3957;48.61947800;9.05303100;2023-04-03T04:22:50;4.53;;;3.47;;
7823;SDS011;3957;48.61947800;9.05303100;2023-04-03T04:23:52;4.13;;;3.03;;
7823;SDS011;3957;48.61947800;9.05303100;2023-04-03T04:24:53;4.35;;;3.13;;
7823;SDS011;3957;48.61947800;9.05303100;2023-04-03T04:25:54;4.30;;;3.30;;
7823;SDS011;3957;48.61947800;9.05303100;2023-04-03T04:26:55;5.05;;;3.53;;
7823;SDS011;3957;48.61947800;9.05303100;2023-04-03T04:27:58;4.97;;;2.70;;
7823;SDS011;3957;48.61947800;9.05303100;2023-04-03T04:28:58;3.10;;;2.77;;
7823;SDS011;3957;48.61947800;9.05303100;2023-04-03T04:29:59;3.27;;;2.90;;
7823;SDS011;3957;48.61947800;9.05303100;2023-04-03T04:31:01;4.28;;;3.25;;
7823;SDS011;3957;48.61947800;9.05303100;2023-04-03T04:32:03;4.57;;;3.30;;
7823;SDS011;3957;48.61947800;9.05303100;2023-04-03T04:33:04;3.85;;;2.80;;
7823;SDS011;3957;48.61947800;9.05303100;2023-04-03T04:34:07;3.22;;;2.92;;
7823;SDS011;3957;48.61947800;9.05303100;2023-04-03T04:35:08;3.92;;;2.97;;
7823;SDS011;3957;48.61947800;9.05303100;2023-04-03T04:36:14;3.42;;;2.92;;
7823;SDS011;3957;48.61947800;9.05303100;2023-04-03T04:37:16;3.22;;;2.88;;
7823;SDS011;3957;48.61947800;9.05303100;2023-04-03T04:38:17;4.57;;;2.92;;
7823;SDS011;3957;48.61947800;9.05303100;2023-04-03T04:39:17;4.05;;;2.85;;
7823;SDS011;3957;48.61947800;9.05303100;2023-04-03T04:40:18;2.70;;;2.50;;
7823;SDS011;3957;48.61947800;9.05303100;2023-04-03T04:41:21;3.53;;;2.88;;
7823;SDS011;3957;48.61947800;9.05303100;2023-04-03T04:42:25;3.15;;;2.72;;
7823;SDS011;3957;48.61947800;9.05303100;2023-04-03T04:43:26;3.60;;;2.92;;
7823;SDS011;3957;48.61947800;9.05303100;2023-04-03T04:44:28;4.88;;;2.75;;
7823;SDS011;3957;48.61947800;9.05303100;2023-04-03T04:45:28;4.60;;;3.10;;
7823;SDS011;3957;48.61947800;9.05303100;2023-04-03T04:46:29;3.63;;;3.00;;
7823;SDS011;3957;48.61947800;9.05303100;2023-04-03T04:47:32;4.20;;;2.80;;
7823;SDS011;3957;48.61947800;9.05303100;2023-04-03T04:48:33;5.47;;;3.00;;
7823;SDS011;3957;48.61947800;9.05303100;2023-04-03T04:49:36;3.58;;;3.10;;
7823;SDS011;3957;48.61947800;9.05303100;2023-04-03T04:50:37;3.60;;;2.80;;
7823;SDS011;3957;48.61947800;9.05303100;2023-04-03T04:51:37;3.73;;;2.70;;
7823;SDS011;3957;48.61947800;9.05303100;2023-04-03T04:52:38;3.30;;;3.00;;
7823;SDS011;3957;48.61947800;9.05303100;2023-04-03T04:53:40;4.13;;;2.92;;
7823;SDS011;3957;48.61947800;9.05303100;2023-04-03T04:54:43;4.43;;;3.08;;
7823;SDS011;3957;48.61947800;9.05303100;2023-04-03T04:55:44;3.85;;;3.00;;
7823;SDS011;3957;48.61947800;9.05303100;2023-04-03T04:56:45;5.13;;;3.22;;
7823;SDS011;3957;48.61947800;9.05303100;2023-04-03T04:57:45;5.03;;;3.10;;
7823;SDS011;3957;48.61947800;9.05303100;2023-04-03T04:58:47;3.20;;;2.90;;
7823;SDS011;3957;48.61947800;9.05303100;2023-04-03T04:59:49;4.65;;;3.40;;
7823;SDS011;3957;48.61947800;9.05303100;2023-04-03T05:00:49;4.65;;;3.10;;
7823;SDS011;3957;48.61947800;9.05303100;2023-04-03T05:01:50;4.40;;;3.30;;
7823;SDS011;3957;48.61947800;9.05303100;2023-04-03T05:02:51;6.33;;;3.63;;
7823;SDS011;3957;48.61947800;9.05303100;2023-04-03T05:03:53;8.57;;;5.35;;
7823;SDS011;3957;48.61947800;9.05303100;2023-04-03T05:04:54;7.75;;;4.13;;
7823;SDS011;3957;48.61947800;9.05303100;2023-04-03T05:05:59;8.10;;;4.70;;
7823;SDS011;3957;48.61947800;9.05303100;2023-04-03T05:07:00;8.95;;;5.38;;
7823;SDS011;3957;48.61947800;9.05303100;2023-04-03T05:08:03;6.45;;;4.00;;
7823;SDS011;3957;48.61947800;9.05303100;2023-04-03T05:09:04;6.32;;;4.22;;
7823;SDS011;3957;48.61947800;9.05303100;2023-04-03T05:10:06;6.22;;;4.15;;
7823;SDS011;3957;48.61947800;9.05303100;2023-04-03T05:11:08;5.78;;;3.83;;
7823;SDS011;3957;48.61947800;9.05303100;2023-04-03T05:12:08;8.57;;;5.20;;
7823;SDS011;3957;48.61947800;9.05303100;2023-04-03T05:13:15;7.25;;;4.40;;
7823;SDS011;3957;48.61947800;9.05303100;2023-04-03T05:14:15;6.67;;;4.07;;
7823;SDS011;3957;48.61947800;9.05303100;2023-04-03T05:15:16;6.27;;;4.43;;
7823;SDS011;3957;48.61947800;9.05303100;2023-04-03T05:16:17;6.55;;;3.90;;
7823;SDS011;3957;48.61947800;9.05303100;2023-04-03T05:17:18;5.23;;;4.03;;
7823;SDS011;3957;48.61947800;9.05303100;2023-04-03T05:18:23;4.28;;;3.50;;
7823;SDS011;3957;48.61947800;9.05303100;2023-04-03T05:19:25;4.13;;;3.28;;
7823;SDS011;3957;48.61947800;9.05303100;2023-04-03T05:20:25;3.90;;;2.90;;
7823;SDS011;3957;48.61947800;9.05303100;2023-04-03T05:21:26;5.10;;;3.23;;
7823;SDS011;3957;48.61947800;9.05303100;2023-04-03T05:22:30;4.03;;;3.30;;
7823;SDS011;3957;48.61947800;9.05303100;2023-04-03T05:23:37;4.25;;;3.22;;
7823;SDS011;3957;48.61947800;9.05303100;2023-04-03T05:24:38;3.80;;;2.60;;
7823;SDS011;3957;48.61947800;9.05303100;2023-04-03T05:25:39;4.40;;;3.00;;
7823;SDS011;3957;48.61947800;9.05303100;2023-04-03T05:26:40;2.90;;;2.60;;
7823;SDS011;3957;48.61947800;9.05303100;2023-04-03T05:27:42;3.75;;;2.97;;
7823;SDS011;3957;48.61947800;9.05303100;2023-04-03T05:28:42;4.43;;;3.40;;
7823;SDS011;3957;48.61947800;9.05303100;2023-04-03T05:29:42;4.90;;;3.00;;
7823;SDS011;3957;48.61947800;9.05303100;2023-04-03T05:30:44;4.35;;;2.95;;
7823;SDS011;3957;48.61947800;9.05303100;2023-04-03T05:31:45;4.15;;;2.90;;
7823;SDS011;3957;48.61947800;9.05303100;2023-04-03T05:32:47;4.35;;;3.17;;
7823;SDS011;3957;48.61947800;9.05303100;2023-04-03T05:34:04;5.72;;;3.22;;